sensor_id;sensor_type;location;lat;lon;timestamp;pressure;altitude;pressure_sealevel;temperature;humidity
63652;BME280;49801;37.536;-122.304;2023-02-03T00:00:22;102133.97;;;16.41;40.54
63652;BME280;49801;37.536;-122.304;2023-02-03T00:00:48;102143.88;;;16.42;39.80
63652;BME280;49801;37.536;-122.304;2023-02-03T00:01:14;102141.16;;;16.34;40.51
63652;BME280;49801;37.536;-122.304;2023-02-03T00:01:41;102142.53;;;16.29;40.60
63652;BME280;49801;37.536;-122.304;2023-02-03T00:02:07;102138.44;;;16.34;40.52
63652;BME280;49801;37.536;-122.304;2023-02-03T00:02:33;102140.53;;;16.23;40.58
63652;BME280;49801;37.536;-122.304;2023-02-03T00:02:59;102133.03;;;16.09;41.16
63652;BME280;49801;37.536;-122.304;2023-02-03T00:03:26;102126.22;;;16.05;39.83
63652;BME280;49801;37.536;-122.304;2023-02-03T00:03:52;102149.47;;;16.01;38.72
63652;BME280;49801;37.536;-122.304;2023-02-03T00:04:18;102148.44;;;15.93;34.64
63652;BME280;49801;37.536;-122.304;2023-02-03T00:04:44;102147.44;;;15.94;34.81
63652;BME280;49801;37.536;-122.304;2023-02-03T00:05:11;102147.06;;;16.06;35.34
63652;BME280;49801;37.536;-122.304;2023-02-03T00:05:37;102127.25;;;16.04;35.63
63652;BME280;49801;37.536;-122.304;2023-02-03T00:06:04;102130.84;;;16.04;34.88
63652;BME280;49801;37.536;-122.304;2023-02-03T00:06:30;102153.53;;;16.13;35.63
63652;BME280;49801;37.536;-122.304;2023-02-03T00:06:57;102151.81;;;16.12;35.83
63652;BME280;49801;37.536;-122.304;2023-02-03T00:07:23;102158.50;;;16.01;36.14
63652;BME280;49801;37.536;-122.304;2023-02-03T00:07:50;102144.75;;;15.78;37.17
63652;BME280;49801;37.536;-122.304;2023-02-03T00:08:17;102154.28;;;15.90;37.36
63652;BME280;49801;37.536;-122.304;2023-02-03T00:08:44;102148.81;;;15.90;35.28
63652;BME280;49801;37.536;-122.304;2023-02-03T00:09:10;102152.03;;;15.94;34.04
63652;BME280;49801;37.536;-122.304;2023-02-03T00:09:37;102152.56;;;15.89;30.74
63652;BME280;49801;37.536;-122.304;2023-02-03T00:10:03;102138.56;;;15.84;31.37
63652;BME280;49801;37.536;-122.304;2023-02-03T00:10:30;102147.44;;;15.86;29.81
63652;BME280;49801;37.536;-122.304;2023-02-03T00:10:57;102142.69;;;15.80;29.24
63652;BME280;49801;37.536;-122.304;2023-02-03T00:11:23;102153.78;;;15.87;27.66
63652;BME280;49801;37.536;-122.304;2023-02-03T00:11:50;102148.09;;;15.88;27.49
63652;BME280;49801;37.536;-122.304;2023-02-03T00:12:16;102151.88;;;15.87;27.93
63652;BME280;49801;37.536;-122.304;2023-02-03T00:12:42;102155.94;;;16.00;28.55
63652;BME280;49801;37.536;-122.304;2023-02-03T00:13:08;102159.19;;;16.03;28.67
63652;BME280;49801;37.536;-122.304;2023-02-03T00:13:35;102147.41;;;16.03;28.71
63652;BME280;49801;37.536;-122.304;2023-02-03T00:14:01;102168.56;;;16.09;29.03
63652;BME280;49801;37.536;-122.304;2023-02-03T00:14:29;102152.38;;;15.99;26.58
63652;BME280;49801;37.536;-122.304;2023-02-03T00:14:56;102165.38;;;15.97;26.62
63652;BME280;49801;37.536;-122.304;2023-02-03T00:15:22;102163.66;;;15.96;26.40
63652;BME280;49801;37.536;-122.304;2023-02-03T00:15:48;102178.16;;;15.88;26.20
63652;BME280;49801;37.536;-122.304;2023-02-03T00:16:14;102164.16;;;15.83;26.17
63652;BME280;49801;37.536;-122.304;2023-02-03T00:16:40;102172.53;;;15.73;25.24
63652;BME280;49801;37.536;-122.304;2023-02-03T00:17:06;102186.72;;;15.77;25.85
63652;BME280;49801;37.536;-122.304;2023-02-03T00:17:33;102174.41;;;15.81;25.55
63652;BME280;49801;37.536;-122.304;2023-02-03T00:17:59;102159.72;;;15.66;25.68
63652;BME280;49801;37.536;-122.304;2023-02-03T00:18:25;102170.34;;;15.77;25.43
63652;BME280;49801;37.536;-122.304;2023-02-03T00:18:51;102185.00;;;15.76;25.95
63652;BME280;49801;37.536;-122.304;2023-02-03T00:19:17;102157.00;;;15.66;25.83
63652;BME280;49801;37.536;-122.304;2023-02-03T00:19:43;102176.13;;;15.82;25.86
63652;BME280;49801;37.536;-122.304;2023-02-03T00:20:10;102176.13;;;15.82;25.95
63652;BME280;49801;37.536;-122.304;2023-02-03T00:20:37;102185.50;;;15.80;25.34
63652;BME280;49801;37.536;-122.304;2023-02-03T00:21:03;102177.50;;;15.70;25.05
63652;BME280;49801;37.536;-122.304;2023-02-03T00:21:29;102181.91;;;15.71;25.22
63652;BME280;49801;37.536;-122.304;2023-02-03T00:21:55;102177.16;;;15.73;25.44
63652;BME280;49801;37.536;-122.304;2023-02-03T00:22:21;102187.03;;;15.74;25.55
63652;BME280;49801;37.536;-122.304;2023-02-03T00:22:48;102183.31;;;15.75;25.05
63652;BME280;49801;37.536;-122.304;2023-02-03T00:23:14;102175.47;;;15.80;25.15
63652;BME280;49801;37.536;-122.304;2023-02-03T00:23:41;102180.88;;;15.72;25.31
63652;BME280;49801;37.536;-122.304;2023-02-03T00:24:07;102189.09;;;15.72;25.57
63652;BME280;49801;37.536;-122.304;2023-02-03T00:24:33;102187.41;;;15.79;25.94
63652;BME280;49801;37.536;-122.304;2023-02-03T00:24:59;102175.75;;;15.69;24.97
63652;BME280;49801;37.536;-122.304;2023-02-03T00:25:25;102151.22;;;15.52;25.29
63652;BME280;49801;37.536;-122.304;2023-02-03T00:25:52;102187.41;;;15.79;25.79
63652;BME280;49801;37.536;-122.304;2023-02-03T00:26:19;102181.06;;;15.70;25.85
63652;BME280;49801;37.536;-122.304;2023-02-03T00:26:45;102176.81;;;15.68;25.87
63652;BME280;49801;37.536;-122.304;2023-02-03T00:27:11;102182.41;;;15.74;26.07
63652;BME280;49801;37.536;-122.304;2023-02-03T00:27:38;102188.44;;;15.78;26.05
63652;BME280;49801;37.536;-122.304;2023-02-03T00:28:05;102181.06;;;15.70;25.69
63652;BME280;49801;37.536;-122.304;2023-02-03T00:28:31;102180.56;;;15.67;25.77
63652;BME280;49801;37.536;-122.304;2023-02-03T00:28:59;102182.59;;;15.65;25.93
63652;BME280;49801;37.536;-122.304;2023-02-03T00:29:25;102186.00;;;15.67;26.19
63652;BME280;49801;37.536;-122.304;2023-02-03T00:29:51;102184.81;;;15.69;26.53
63652;BME280;49801;37.536;-122.304;2023-02-03T00:30:17;102183.63;;;15.72;26.48
63652;BME280;49801;37.536;-122.304;2023-02-03T00:30:44;102186.34;;;15.64;26.08
63652;BME280;49801;37.536;-122.304;2023-02-03T00:31:16;102178.66;;;15.59;26.19
63652;BME280;49801;37.536;-122.304;2023-02-03T00:31:43;102182.59;;;15.65;26.69
63652;BME280;49801;37.536;-122.304;2023-02-03T00:32:09;102196.94;;;15.67;26.86
63652;BME280;49801;37.536;-122.304;2023-02-03T00:32:36;102182.59;;;15.65;26.26
63652;BME280;49801;37.536;-122.304;2023-02-03T00:33:03;102186.00;;;15.67;26.83
63652;BME280;49801;37.536;-122.304;2023-02-03T00:33:29;102177.66;;;15.68;26.84
63652;BME280;49801;37.536;-122.304;2023-02-03T00:33:56;102176.81;;;15.68;27.42
63652;BME280;49801;37.536;-122.304;2023-02-03T00:34:26;102185.69;;;15.70;27.15
63652;BME280;49801;37.536;-122.304;2023-02-03T00:34:52;102178.50;;;15.69;27.44
63652;BME280;49801;37.536;-122.304;2023-02-03T00:35:18;102177.16;;;15.73;27.81
63652;BME280;49801;37.536;-122.304;2023-02-03T00:35:44;102175.75;;;15.61;27.10
63652;BME280;49801;37.536;-122.304;2023-02-03T00:36:11;102170.31;;;15.61;27.42
63652;BME280;49801;37.536;-122.304;2023-02-03T00:36:37;102174.06;;;15.60;26.71
63652;BME280;49801;37.536;-122.304;2023-02-03T00:37:03;102170.31;;;15.61;26.66
63652;BME280;49801;37.536;-122.304;2023-02-03T00:37:30;102177.16;;;15.65;27.04
63652;BME280;49801;37.536;-122.304;2023-02-03T00:37:56;102170.66;;;15.57;26.18
63652;BME280;49801;37.536;-122.304;2023-02-03T00:38:26;102179.88;;;15.56;26.24
63652;BME280;49801;37.536;-122.304;2023-02-03T00:38:53;102175.97;;;15.51;26.54
63652;BME280;49801;37.536;-122.304;2023-02-03T00:39:19;102171.34;;;15.51;26.52
63652;BME280;49801;37.536;-122.304;2023-02-03T00:39:45;102175.09;;;15.50;26.12
63652;BME280;49801;37.536;-122.304;2023-02-03T00:40:12;102172.00;;;15.45;26.32
63652;BME280;49801;37.536;-122.304;2023-02-03T00:40:38;102137.56;;;15.28;26.27
63652;BME280;49801;37.536;-122.304;2023-02-03T00:41:05;102178.16;;;15.55;26.52
63652;BME280;49801;37.536;-122.304;2023-02-03T00:41:31;102177.47;;;15.53;26.59
63652;BME280;49801;37.536;-122.304;2023-02-03T00:41:57;102177.13;;;15.48;26.51
63652;BME280;49801;37.536;-122.304;2023-02-03T00:42:23;102185.66;;;15.45;26.39
63652;BME280;49801;37.536;-122.304;2023-02-03T00:42:50;102165.53;;;15.38;26.39
63652;BME280;49801;37.536;-122.304;2023-02-03T00:43:16;102171.84;;;15.38;26.60
63652;BME280;49801;37.536;-122.304;2023-02-03T00:43:42;102185.31;;;15.48;26.96
63652;BME280;49801;37.536;-122.304;2023-02-03T00:44:09;102183.63;;;15.47;26.20
63652;BME280;49801;37.536;-122.304;2023-02-03T00:44:35;102184.66;;;15.46;26.63
63652;BME280;49801;37.536;-122.304;2023-02-03T00:45:01;102170.66;;;15.41;26.89
63652;BME280;49801;37.536;-122.304;2023-02-03T00:45:28;102181.56;;;15.41;26.56
63652;BME280;49801;37.536;-122.304;2023-02-03T00:45:54;102186.88;;;15.43;25.99
63652;BME280;49801;37.536;-122.304;2023-02-03T00:46:20;102179.50;;;15.35;25.93
63652;BME280;49801;37.536;-122.304;2023-02-03T00:46:46;102181.91;;;15.38;26.08
63652;BME280;49801;37.536;-122.304;2023-02-03T00:47:12;102167.56;;;15.19;26.18
63652;BME280;49801;37.536;-122.304;2023-02-03T00:47:38;102168.97;;;15.32;26.79
63652;BME280;49801;37.536;-122.304;2023-02-03T00:48:05;102180.56;;;15.34;25.55
63652;BME280;49801;37.536;-122.304;2023-02-03T00:48:31;102191.63;;;15.32;25.76
63652;BME280;49801;37.536;-122.304;2023-02-03T00:48:57;102181.22;;;15.28;25.79
63652;BME280;49801;37.536;-122.304;2023-02-03T00:49:24;102185.81;;;15.27;25.65
63652;BME280;49801;37.536;-122.304;2023-02-03T00:49:50;102187.00;;;15.25;25.63
63652;BME280;49801;37.536;-122.304;2023-02-03T00:50:16;102188.72;;;15.26;25.54
63652;BME280;49801;37.536;-122.304;2023-02-03T00:50:45;102186.34;;;15.31;25.94
63652;BME280;49801;37.536;-122.304;2023-02-03T00:51:12;102178.31;;;15.29;25.99
63652;BME280;49801;37.536;-122.304;2023-02-03T00:51:38;102178.47;;;15.19;25.85
63652;BME280;49801;37.536;-122.304;2023-02-03T00:52:04;102184.28;;;15.25;25.46
63652;BME280;49801;37.536;-122.304;2023-02-03T00:52:30;102178.47;;;15.28;25.80
63652;BME280;49801;37.536;-122.304;2023-02-03T00:52:56;102142.81;;;15.05;25.81
63652;BME280;49801;37.536;-122.304;2023-02-03T00:53:23;102179.84;;;15.24;25.54
63652;BME280;49801;37.536;-122.304;2023-02-03T00:53:49;102183.78;;;15.29;25.56
63652;BME280;49801;37.536;-122.304;2023-02-03T00:54:15;102181.22;;;15.28;25.47
63652;BME280;49801;37.536;-122.304;2023-02-03T00:54:41;102175.41;;;15.23;24.94
63652;BME280;49801;37.536;-122.304;2023-02-03T00:55:08;102174.72;;;15.21;25.43
63652;BME280;49801;37.536;-122.304;2023-02-03T00:55:34;102176.44;;;15.22;25.13
63652;BME280;49801;37.536;-122.304;2023-02-03T00:56:00;102174.41;;;15.24;25.19
63652;BME280;49801;37.536;-122.304;2023-02-03T00:56:26;102171.84;;;15.22;24.77
63652;BME280;49801;37.536;-122.304;2023-02-03T00:56:52;102171.84;;;15.22;24.75
63652;BME280;49801;37.536;-122.304;2023-02-03T00:57:19;102163.81;;;15.29;25.34
63652;BME280;49801;37.536;-122.304;2023-02-03T00:57:45;102161.59;;;15.32;25.47
63652;BME280;49801;37.536;-122.304;2023-02-03T00:58:11;102151.19;;;15.19;25.35
63652;BME280;49801;37.536;-122.304;2023-02-03T00:58:40;102163.81;;;15.21;25.02
63652;BME280;49801;37.536;-122.304;2023-02-03T00:59:07;102161.44;;;15.26;25.24
63652;BME280;49801;37.536;-122.304;2023-02-03T00:59:33;102159.72;;;15.25;24.67
63652;BME280;49801;37.536;-122.304;2023-02-03T00:59:59;102157.66;;;15.10;24.13
63652;BME280;49801;37.536;-122.304;2023-02-03T01:00:25;102163.78;;;15.04;23.97
63652;BME280;49801;37.536;-122.304;2023-02-03T01:00:53;102142.66;;;14.98;23.87
63652;BME280;49801;37.536;-122.304;2023-02-03T01:01:20;102156.81;;;15.10;23.88
63652;BME280;49801;37.536;-122.304;2023-02-03T01:01:46;102159.38;;;15.11;23.94
63652;BME280;49801;37.536;-122.304;2023-02-03T01:02:14;102156.81;;;15.10;23.83
63652;BME280;49801;37.536;-122.304;2023-02-03T01:02:41;102161.75;;;15.14;24.02
63652;BME280;49801;37.536;-122.304;2023-02-03T01:03:07;102151.53;;;15.16;23.54
63652;BME280;49801;37.536;-122.304;2023-02-03T01:03:35;102151.03;;;15.13;23.21
63652;BME280;49801;37.536;-122.304;2023-02-03T01:04:02;102136.34;;;14.97;23.39
63652;BME280;49801;37.536;-122.304;2023-02-03T01:04:28;102144.00;;;15.02;22.76
63652;BME280;49801;37.536;-122.304;2023-02-03T01:04:54;102152.88;;;15.04;22.87
63652;BME280;49801;37.536;-122.304;2023-02-03T01:05:21;102129.50;;;14.93;22.91
63652;BME280;49801;37.536;-122.304;2023-02-03T01:05:47;102146.06;;;15.00;23.25
63652;BME280;49801;37.536;-122.304;2023-02-03T01:06:20;102152.72;;;14.97;23.27
63652;BME280;49801;37.536;-122.304;2023-02-03T01:06:46;102112.25;;;14.76;23.24
63652;BME280;49801;37.536;-122.304;2023-02-03T01:07:12;102146.72;;;14.94;22.77
63652;BME280;49801;37.536;-122.304;2023-02-03T01:07:38;102145.69;;;14.95;23.24
63652;BME280;49801;37.536;-122.304;2023-02-03T01:08:05;102144.34;;;14.99;22.95
63652;BME280;49801;37.536;-122.304;2023-02-03T01:08:31;102141.81;;;14.97;23.19
63652;BME280;49801;37.536;-122.304;2023-02-03T01:08:57;102142.31;;;15.01;23.29
63652;BME280;49801;37.536;-122.304;2023-02-03T01:09:24;102143.66;;;15.05;23.18
63652;BME280;49801;37.536;-122.304;2023-02-03T01:09:50;102147.41;;;15.04;23.21
63652;BME280;49801;37.536;-122.304;2023-02-03T01:10:16;102143.66;;;15.05;23.62
63652;BME280;49801;37.536;-122.304;2023-02-03T01:10:42;102131.03;;;15.04;23.61
63652;BME280;49801;37.536;-122.304;2023-02-03T01:11:11;102127.63;;;15.02;23.83
63652;BME280;49801;37.536;-122.304;2023-02-03T01:11:38;102143.66;;;15.05;23.71
63652;BME280;49801;37.536;-122.304;2023-02-03T01:12:05;102131.72;;;14.98;23.61
63652;BME280;49801;37.536;-122.304;2023-02-03T01:12:31;102141.25;;;14.94;23.85
63652;BME280;49801;37.536;-122.304;2023-02-03T01:12:58;102129.66;;;14.84;23.88
63652;BME280;49801;37.536;-122.304;2023-02-03T01:13:24;102129.31;;;14.87;23.60
63652;BME280;49801;37.536;-122.304;2023-02-03T01:13:52;102134.75;;;14.87;23.63
63652;BME280;49801;37.536;-122.304;2023-02-03T01:14:18;102123.53;;;14.90;23.83
63652;BME280;49801;37.536;-122.304;2023-02-03T01:14:45;102125.25;;;14.91;23.47
63652;BME280;49801;37.536;-122.304;2023-02-03T01:15:11;102124.22;;;14.84;23.07
63652;BME280;49801;37.536;-122.304;2023-02-03T01:15:37;102119.78;;;14.82;23.39
63652;BME280;49801;37.536;-122.304;2023-02-03T01:16:06;102118.41;;;14.87;23.72
63652;BME280;49801;37.536;-122.304;2023-02-03T01:16:32;102115.69;;;14.87;23.77
63652;BME280;49801;37.536;-122.304;2023-02-03T01:17:02;102115.84;;;14.85;23.54
63652;BME280;49801;37.536;-122.304;2023-02-03T01:17:29;102109.53;;;14.85;23.79
63652;BME280;49801;37.536;-122.304;2023-02-03T01:17:55;102110.94;;;14.89;24.08
63652;BME280;49801;37.536;-122.304;2023-02-03T01:18:21;102110.59;;;14.84;23.99
63652;BME280;49801;37.536;-122.304;2023-02-03T01:18:47;102116.72;;;14.86;24.47
63652;BME280;49801;37.536;-122.304;2023-02-03T01:19:14;102115.69;;;14.78;24.69
63652;BME280;49801;37.536;-122.304;2023-02-03T01:19:41;102112.44;;;14.83;25.08
63652;BME280;49801;37.536;-122.304;2023-02-03T01:20:08;102105.81;;;14.86;25.24
63652;BME280;49801;37.536;-122.304;2023-02-03T01:20:36;102102.41;;;14.84;25.36
63652;BME280;49801;37.536;-122.304;2023-02-03T01:21:14;102109.03;;;14.81;25.80
63652;BME280;49801;37.536;-122.304;2023-02-03T01:21:41;102108.50;;;14.77;25.80
63652;BME280;49801;37.536;-122.304;2023-02-03T01:22:07;102103.56;;;14.73;25.79
63652;BME280;49801;37.536;-122.304;2023-02-03T01:22:33;102106.63;;;14.78;26.04
63652;BME280;49801;37.536;-122.304;2023-02-03T01:22:59;102084.78;;;14.70;26.17
63652;BME280;49801;37.536;-122.304;2023-02-03T01:23:26;102106.47;;;14.79;26.43
63652;BME280;49801;37.536;-122.304;2023-02-03T01:23:55;102101.00;;;14.79;26.53
63652;BME280;49801;37.536;-122.304;2023-02-03T01:24:21;102101.38;;;14.85;26.62
63652;BME280;49801;37.536;-122.304;2023-02-03T01:24:47;102096.94;;;14.84;27.15
63652;BME280;49801;37.536;-122.304;2023-02-03T01:25:13;102110.38;;;14.85;27.38
63652;BME280;49801;37.536;-122.304;2023-02-03T01:25:40;102107.84;;;14.84;27.57
63652;BME280;49801;37.536;-122.304;2023-02-03T01:26:08;102101.00;;;14.79;28.07
63652;BME280;49801;37.536;-122.304;2023-02-03T01:26:35;102106.81;;;14.85;27.99
63652;BME280;49801;37.536;-122.304;2023-02-03T01:27:01;102100.66;;;14.74;28.52
63652;BME280;49801;37.536;-122.304;2023-02-03T01:27:27;102119.09;;;14.80;29.50
63652;BME280;49801;37.536;-122.304;2023-02-03T01:27:54;102121.81;;;14.80;29.32
63652;BME280;49801;37.536;-122.304;2023-02-03T01:28:20;102120.44;;;14.68;30.06
63652;BME280;49801;37.536;-122.304;2023-02-03T01:28:54;102123.00;;;14.78;30.71
63652;BME280;49801;37.536;-122.304;2023-02-03T01:29:20;102126.75;;;14.77;31.01
63652;BME280;49801;37.536;-122.304;2023-02-03T01:29:47;102127.25;;;14.72;31.88
63652;BME280;49801;37.536;-122.304;2023-02-03T01:30:13;102124.50;;;14.64;32.00
63652;BME280;49801;37.536;-122.304;2023-02-03T01:30:39;102135.25;;;14.74;31.83
63652;BME280;49801;37.536;-122.304;2023-02-03T01:31:38;102128.28;;;14.79;32.09
63652;BME280;49801;37.536;-122.304;2023-02-03T01:32:04;102126.91;;;14.75;32.40
63652;BME280;49801;37.536;-122.304;2023-02-03T01:32:30;102131.69;;;14.73;32.68
63652;BME280;49801;37.536;-122.304;2023-02-03T01:32:57;102130.47;;;14.68;33.46
63652;BME280;49801;37.536;-122.304;2023-02-03T01:33:23;102126.84;;;14.59;34.20
63652;BME280;49801;37.536;-122.304;2023-02-03T01:33:51;102130.25;;;14.61;34.13
63652;BME280;49801;37.536;-122.304;2023-02-03T01:34:18;102129.41;;;14.60;34.17
63652;BME280;49801;37.536;-122.304;2023-02-03T01:34:45;102134.97;;;14.51;35.11
63652;BME280;49801;37.536;-122.304;2023-02-03T01:35:11;102133.94;;;14.43;35.45
63652;BME280;49801;37.536;-122.304;2023-02-03T01:35:37;102134.59;;;14.45;35.63
63652;BME280;49801;37.536;-122.304;2023-02-03T01:36:03;102137.69;;;14.51;35.40
63652;BME280;49801;37.536;-122.304;2023-02-03T01:36:31;102125.78;;;14.52;35.43
63652;BME280;49801;37.536;-122.304;2023-02-03T01:36:57;102132.59;;;14.56;35.28
63652;BME280;49801;37.536;-122.304;2023-02-03T01:37:23;102118.09;;;14.47;35.99
63652;BME280;49801;37.536;-122.304;2023-02-03T01:37:50;102131.25;;;14.52;36.11
63652;BME280;49801;37.536;-122.304;2023-02-03T01:38:16;102131.56;;;14.49;36.37
63652;BME280;49801;37.536;-122.304;2023-02-03T01:38:42;102122.69;;;14.47;36.19
63652;BME280;49801;37.536;-122.304;2023-02-03T01:39:09;102122.69;;;14.47;36.20
63652;BME280;49801;37.536;-122.304;2023-02-03T01:39:35;102116.56;;;14.44;36.21
63652;BME280;49801;37.536;-122.304;2023-02-03T01:40:02;102119.97;;;14.47;36.28
63652;BME280;49801;37.536;-122.304;2023-02-03T01:40:28;102118.63;;;14.51;36.53
63652;BME280;49801;37.536;-122.304;2023-02-03T01:40:54;102126.09;;;14.49;36.62
63652;BME280;49801;37.536;-122.304;2023-02-03T01:41:23;102113.00;;;14.44;36.88
63652;BME280;49801;37.536;-122.304;2023-02-03T01:41:49;102120.13;;;14.45;36.78
63652;BME280;49801;37.536;-122.304;2023-02-03T01:42:15;102122.69;;;14.47;36.66
63652;BME280;49801;37.536;-122.304;2023-02-03T01:42:41;102124.41;;;14.48;36.71
63652;BME280;49801;37.536;-122.304;2023-02-03T01:43:09;102127.16;;;14.48;37.02
63652;BME280;49801;37.536;-122.304;2023-02-03T01:43:40;102120.13;;;14.45;37.00
63652;BME280;49801;37.536;-122.304;2023-02-03T01:45:04;102117.91;;;14.40;37.03
63652;BME280;49801;37.536;-122.304;2023-02-03T01:45:33;102121.66;;;14.39;37.13
63652;BME280;49801;37.536;-122.304;2023-02-03T01:46:03;102129.16;;;14.37;36.91
63652;BME280;49801;37.536;-122.304;2023-02-03T01:46:39;102132.88;;;14.36;36.95
63652;BME280;49801;37.536;-122.304;2023-02-03T01:48:32;102134.50;;;14.21;37.53
63652;BME280;49801;37.536;-122.304;2023-02-03T01:49:12;102140.66;;;14.23;37.63
63652;BME280;49801;37.536;-122.304;2023-02-03T01:49:42;102142.53;;;14.22;37.69
63652;BME280;49801;37.536;-122.304;2023-02-03T01:50:20;102140.97;;;14.20;37.80
63652;BME280;49801;37.536;-122.304;2023-02-03T01:50:47;102147.75;;;14.16;38.03
63652;BME280;49801;37.536;-122.304;2023-02-03T01:51:13;102142.09;;;14.09;38.14
63652;BME280;49801;37.536;-122.304;2023-02-03T01:51:42;102142.78;;;14.03;38.02
63652;BME280;49801;37.536;-122.304;2023-02-03T01:52:10;102146.28;;;13.95;37.81
63652;BME280;49801;37.536;-122.304;2023-02-03T01:52:38;102153.91;;;13.92;37.90
63652;BME280;49801;37.536;-122.304;2023-02-03T01:53:09;102143.50;;;13.87;38.13
63652;BME280;49801;37.536;-122.304;2023-02-03T01:53:37;102141.50;;;13.89;38.28
63652;BME280;49801;37.536;-122.304;2023-02-03T01:54:04;102147.88;;;13.80;38.20
63652;BME280;49801;37.536;-122.304;2023-02-03T01:54:36;102144.72;;;13.66;38.50
63652;BME280;49801;37.536;-122.304;2023-02-03T01:55:07;102137.31;;;13.77;38.36
63652;BME280;49801;37.536;-122.304;2023-02-03T01:55:37;102140.00;;;13.68;38.72
63652;BME280;49801;37.536;-122.304;2023-02-03T01:56:06;102131.00;;;13.50;38.93
63652;BME280;49801;37.536;-122.304;2023-02-03T01:56:35;102136.69;;;13.57;39.11
63652;BME280;49801;37.536;-122.304;2023-02-03T01:57:14;102139.25;;;13.58;39.13
63652;BME280;49801;37.536;-122.304;2023-02-03T01:58:24;102121.13;;;13.49;39.11
63652;BME280;49801;37.536;-122.304;2023-02-03T01:58:53;102134.81;;;13.57;39.33
63652;BME280;49801;37.536;-122.304;2023-02-03T01:59:21;102138.06;;;13.61;39.40
63652;BME280;49801;37.536;-122.304;2023-02-03T01:59:50;102137.81;;;13.54;39.75
63652;BME280;49801;37.536;-122.304;2023-02-03T02:00:17;102138.88;;;13.53;39.64
63652;BME280;49801;37.536;-122.304;2023-02-03T02:00:44;102146.09;;;13.44;40.10
63652;BME280;49801;37.536;-122.304;2023-02-03T02:01:12;102137.06;;;13.44;40.04
63652;BME280;49801;37.536;-122.304;2023-02-03T02:01:39;102137.06;;;13.44;40.10
63652;BME280;49801;37.536;-122.304;2023-02-03T02:02:06;102136.44;;;13.50;40.03
63652;BME280;49801;37.536;-122.304;2023-02-03T02:02:32;102134.41;;;13.52;40.15
63652;BME280;49801;37.536;-122.304;2023-02-03T02:02:59;102138.13;;;13.51;40.31
63652;BME280;49801;37.536;-122.304;2023-02-03T02:03:41;102130.31;;;13.48;40.29
63652;BME280;49801;37.536;-122.304;2023-02-03T02:04:09;102131.94;;;13.41;40.62
63652;BME280;49801;37.536;-122.304;2023-02-03T02:04:47;102141.13;;;13.40;40.96
63652;BME280;49801;37.536;-122.304;2023-02-03T02:06:13;102147.25;;;13.24;41.71
63652;BME280;49801;37.536;-122.304;2023-02-03T02:06:40;102144.53;;;13.24;41.71
63652;BME280;49801;37.536;-122.304;2023-02-03T02:07:08;102141.97;;;13.22;41.89
63652;BME280;49801;37.536;-122.304;2023-02-03T02:07:36;102147.72;;;13.19;42.08
63652;BME280;49801;37.536;-122.304;2023-02-03T02:08:03;102147.56;;;13.21;42.06
63652;BME280;49801;37.536;-122.304;2023-02-03T02:08:30;102138.38;;;13.22;42.19
63652;BME280;49801;37.536;-122.304;2023-02-03T02:08:57;102144.69;;;13.22;41.96
63652;BME280;49801;37.536;-122.304;2023-02-03T02:09:25;102135.44;;;13.15;42.00
63652;BME280;49801;37.536;-122.304;2023-02-03T02:09:53;102139.78;;;13.26;41.83
63652;BME280;49801;37.536;-122.304;2023-02-03T02:10:20;102148.34;;;13.31;41.81
63652;BME280;49801;37.536;-122.304;2023-02-03T02:10:46;102122.22;;;13.20;42.14
63652;BME280;49801;37.536;-122.304;2023-02-03T02:11:13;102144.94;;;13.29;42.13
63652;BME280;49801;37.536;-122.304;2023-02-03T02:11:39;102144.47;;;13.34;41.89
63652;BME280;49801;37.536;-122.304;2023-02-03T02:12:05;102130.06;;;13.23;41.91
63652;BME280;49801;37.536;-122.304;2023-02-03T02:12:32;102135.44;;;13.15;42.38
63652;BME280;49801;37.536;-122.304;2023-02-03T02:13:00;102137.91;;;13.26;42.15
63652;BME280;49801;37.536;-122.304;2023-02-03T02:13:29;102139.63;;;13.27;42.03
63652;BME280;49801;37.536;-122.304;2023-02-03T02:14:00;102137.22;;;13.24;42.46
63652;BME280;49801;37.536;-122.304;2023-02-03T02:14:27;102138.88;;;13.17;42.41
63652;BME280;49801;37.536;-122.304;2023-02-03T02:14:54;102145.84;;;13.20;42.52
63652;BME280;49801;37.536;-122.304;2023-02-03T02:15:22;102139.56;;;13.19;42.75
63652;BME280;49801;37.536;-122.304;2023-02-03T02:18:01;102128.22;;;13.06;42.77
63652;BME280;49801;37.536;-122.304;2023-02-03T02:21:27;102133.09;;;13.02;41.99
63652;BME280;49801;37.536;-122.304;2023-02-03T02:22:56;102126.72;;;12.93;41.73
63652;BME280;49801;37.536;-122.304;2023-02-03T02:25:43;102119.50;;;13.02;41.79
63652;BME280;49801;37.536;-122.304;2023-02-03T02:26:36;102115.63;;;13.05;41.91
63652;BME280;49801;37.536;-122.304;2023-02-03T02:29:40;102121.38;;;13.02;42.12
63652;BME280;49801;37.536;-122.304;2023-02-03T02:31:30;102125.34;;;12.89;42.54
63652;BME280;49801;37.536;-122.304;2023-02-03T02:33:22;102126.34;;;12.88;42.59
63652;BME280;49801;37.536;-122.304;2023-02-03T02:34:00;102126.34;;;12.88;42.90
63652;BME280;49801;37.536;-122.304;2023-02-03T02:37:01;102122.44;;;12.73;43.59
63652;BME280;49801;37.536;-122.304;2023-02-03T02:37:51;102120.41;;;12.75;43.71
63652;BME280;49801;37.536;-122.304;2023-02-03T02:39:44;102128.13;;;12.80;43.61
63652;BME280;49801;37.536;-122.304;2023-02-03T02:40:46;102121.84;;;12.79;43.75